ENVA Airport Information

Runway Information
Runway 09 Length 9052 ft width 148 ft
Elevation 17 ft Threshold 830 ft Heading 90
Runway 27 Length 9052 ft Width 148 ft
Elevation 56 ft Threshold 459 ft Heading 270
Runway 13 Length 4771 ft width 118 ft
Elevation 30 ft Threshold 412 ft Heading 134
Runway 31 Length 4771 ft Width 118 ft
Elevation 54 ft Threshold 962 ft Heading 314
Runway 14 Length 3117 ft width 118 ft
Elevation 30 ft Threshold 0 ft Heading 134
Runway 32 Length 3117 ft Width 118 ft
Elevation 54 ft Threshold 0 ft Heading 314
Airport Frequencies
Type APP Name APP Frequency 118.6 MHZ
Type ATIS Name ATIS Frequency 127.55 MHZ
Type GND Name Værnes gro Frequency 121.6 MHZ
Type TWR Name TWR Frequency 119.4 MHZ
Airport Navaids
Type NDB Name Flornes Frequency 380 KHZ
Type NDB Name Grakallen Frequency 358 KHZ
Type VOR-DME Name Trondheim Frequency 112500 KHZ
Type TACAN Name Vaernes Frequency 109600 KHZ
Airport Weather Information & NOTAM
Deprecated: The each() function is deprecated. This message will be suppressed on further calls in /storage/content/79/1005879/virtualnac.org/public_html/v2/lib/functions.php on line 154 ADDS - METARS form results

(1104 UTC 28 November 2021)
Data provider http://aviationweather.gov/metar/data/
 
METAR text: ENVA 281050Z 13005KT 100V160 CAVOK M11/M13 Q1007 NOSIG RMK WIND 670FT 09010KT
Conditions at: ENVA (TRONDHEIM/VAERNE, NO) observed 1050 UTC 28 November 2021
Temperature: -11.0°C (12°F)
Dewpoint: -13.0°C ( 9°F) [RH = 85%]
Pressure (altimeter): 29.73 inches Hg (1007.0 mb)
Winds: from the SE (130 degrees) at 6 MPH (5 knots; 2.6 m/s)
Visibility: 6 or more miles (10+ km)
Ceiling: ceiling and visibility are OK
Clouds: unknown
Weather: no significant weather observed at this time

METAR text: ENVA 281020Z 13008KT CAVOK M11/M13 Q1007 NOSIG RMK WIND 670FT 11009KT
Conditions at: ENVA (TRONDHEIM/VAERNE, NO) observed 1020 UTC 28 November 2021
Temperature: -11.0°C (12°F)
Dewpoint: -13.0°C ( 9°F) [RH = 85%]
Pressure (altimeter): 29.73 inches Hg (1007.0 mb)
Winds: from the SE (130 degrees) at 9 MPH (8 knots; 4.1 m/s)
Visibility: 6 or more miles (10+ km)
Ceiling: ceiling and visibility are OK
Clouds: unknown
Weather: no significant weather observed at this time

Forecast for: ENVA (TRONDHEIM/VAERNE, NO)
Text: TAF ENVA 2806/2906 12008KT 9999 FEW012
Forecast period: 0600 UTC 28 November 2021 to 0600 UTC 29 November 2021
Forecast type: FROM: standard forecast or significant change
Winds: from the ESE (120 degrees) at 9 MPH (8 knots; 4.1 m/s)
Visibility: 6 or more miles (10+ km)
Ceiling: at least 12,000 feet AGL
Clouds: few clouds at 1200 feet AGL
Weather: no significant weather forecast for this period